Time;durP1;ratioP1;P1;durP2;ratioP2;P2;SDS_P1;SDS_P2;PMS_P1;PMS_P2;Temp;Humidity;BMP_temperature;BMP_pressure;BME280_temperature;BME280_humidity;BME280_pressure;Samples;Min_cycle;Max_cycle;Signal;HPM_P1;HPM_P2
2022/01/19 00:01:01;;;;;;;2.35;2.05;;;18.70;31.80;;;;;;5064934;28;47170;-18
2022/01/19 00:03:29;;;;;;;3.08;2.10;;;18.70;31.80;;;;;;5064748;28;46834;-19
2022/01/19 00:05:56;;;;;;;2.25;2.05;;;18.70;31.70;;;;;;5064745;28;46913;-19
2022/01/19 00:08:23;;;;;;;2.47;2.10;;;18.70;31.70;;;;;;5064496;28;48098;-18
2022/01/19 00:10:51;;;;;;;2.58;2.10;;;18.70;31.70;;;;;;5064960;28;46844;-19
2022/01/19 00:13:19;;;;;;;2.83;2.28;;;18.70;31.70;;;;;;5064348;28;46877;-18
2022/01/19 00:15:46;;;;;;;2.65;2.38;;;18.60;31.70;;;;;;5065078;28;47307;-20
2022/01/19 00:18:13;;;;;;;3.03;2.10;;;18.60;32.00;;;;;;5064080;28;48038;-18
2022/01/19 00:20:41;;;;;;;3.50;2.10;;;18.60;31.70;;;;;;5064293;28;47419;-19
2022/01/19 00:23:09;;;;;;;2.53;2.00;;;18.60;32.20;;;;;;5064133;28;46904;-19
2022/01/19 00:25:36;;;;;;;2.72;2.15;;;18.60;31.60;;;;;;5064473;28;46945;-19
2022/01/19 00:28:03;;;;;;;2.80;2.10;;;18.60;31.60;;;;;;5064362;28;48797;-19
2022/01/19 00:30:29;;;;;;;3.00;2.70;;;18.60;31.70;;;;;;5064629;28;47016;-19
2022/01/19 00:32:56;;;;;;;3.17;2.67;;;18.60;31.70;;;;;;5063970;28;46814;-19
2022/01/19 00:35:23;;;;;;;2.70;2.20;;;18.60;31.70;;;;;;5064423;28;46858;-18
2022/01/19 00:37:51;;;;;;;2.80;2.40;;;18.60;31.60;;;;;;5067430;28;47968;-19
2022/01/19 00:40:18;;;;;;;2.53;2.30;;;18.60;31.60;;;;;;5067918;28;47461;-19
2022/01/19 00:42:45;;;;;;;3.00;2.60;;;18.60;31.50;;;;;;5067727;28;46922;-19
2022/01/19 00:45:12;;;;;;;2.88;2.50;;;18.60;31.50;;;;;;5068198;28;46913;-19
2022/01/19 00:47:39;;;;;;;2.90;2.47;;;18.60;31.50;;;;;;5067670;28;48795;-19
2022/01/19 00:50:07;;;;;;;2.80;2.50;;;18.60;31.60;;;;;;5067666;28;47422;-19
2022/01/19 00:52:35;;;;;;;2.97;2.65;;;18.60;31.50;;;;;;5067538;28;46950;-18
2022/01/19 00:55:03;;;;;;;2.83;2.40;;;18.60;31.50;;;;;;5067903;28;46998;-20
2022/01/19 00:57:30;;;;;;;2.78;2.50;;;18.60;32.00;;;;;;5067495;28;48112;-18
2022/01/19 00:59:57;;;;;;;2.67;2.20;;;18.60;31.40;;;;;;5067209;28;46920;-19
2022/01/19 01:02:23;;;;;;;3.55;2.83;;;18.60;31.40;;;;;;5067570;28;46795;-18
2022/01/19 01:04:50;;;;;;;4.05;2.33;;;18.60;31.40;;;;;;5067669;28;47368;-19
2022/01/19 01:07:17;;;;;;;4.93;2.55;;;18.60;31.50;;;;;;5067380;28;48088;-18
2022/01/19 01:09:44;;;;;;;3.65;2.72;;;18.60;31.50;;;;;;5067311;28;47126;-18
2022/01/19 01:12:19;;;;;;;3.35;2.38;;;18.60;31.40;;;;;;5067150;28;46909;-19
2022/01/19 01:20:14;;;;;;;3.22;2.63;;;18.60;31.30;;;;;;5064450;28;46847;-13
2022/01/19 01:22:41;;;;;;;2.67;2.42;;;18.60;31.40;;;;;;5067203;28;46898;-13
2022/01/19 01:25:08;;;;;;;2.80;2.60;;;18.60;31.30;;;;;;5067018;28;46914;-14
2022/01/19 01:27:36;;;;;;;3.22;2.33;;;18.60;31.30;;;;;;5067104;28;46933;-13
2022/01/19 01:30:06;;;;;;;3.33;2.72;;;18.60;31.20;;;;;;5067038;28;47424;-14
2022/01/19 01:32:32;;;;;;;3.97;2.58;;;18.60;31.20;;;;;;5066862;28;46856;-13
2022/01/19 01:34:59;;;;;;;3.58;2.83;;;18.60;31.20;;;;;;5067218;28;46858;-14
2022/01/19 01:37:26;;;;;;;3.00;2.13;;;18.60;31.20;;;;;;5066523;28;48138;-15
2022/01/19 01:39:53;;;;;;;2.92;2.30;;;18.60;31.20;;;;;;5066821;28;46835;-13
2022/01/19 01:42:20;;;;;;;3.47;2.65;;;18.60;31.20;;;;;;5066688;28;46850;-13
2022/01/19 01:44:51;;;;;;;2.95;2.30;;;18.60;31.20;;;;;;5067030;28;47346;-14
2022/01/19 01:47:19;;;;;;;2.67;2.30;;;18.60;31.20;;;;;;5065810;28;48914;-14
2022/01/19 01:53:25;;;;;;;3.83;2.35;;;18.60;31.20;;;;;;5066224;28;47471;-13
2022/01/19 01:55:19;;;;;;;3.13;2.40;;;18.50;31.20;;;;;;5064138;28;46787;-14
2022/01/19 01:57:46;;;;;;;2.42;2.20;;;18.50;31.20;;;;;;5066069;28;48157;-13
2022/01/19 02:00:16;;;;;;;2.30;2.10;;;18.60;31.20;;;;;;5066595;28;47264;-14
2022/01/19 02:02:43;;;;;;;2.58;2.25;;;18.60;31.20;;;;;;5066695;28;47002;-18
2022/01/19 02:05:10;;;;;;;2.85;2.50;;;18.60;31.10;;;;;;5066482;28;46901;-19
2022/01/19 02:07:44;;;;;;;3.53;2.50;;;18.60;31.20;;;;;;5066276;28;47956;-19
2022/01/19 02:10:28;;;;;;;2.05;1.85;;;18.50;31.10;;;;;;5066202;28;46946;-19
2022/01/19 02:15:59;;;;;;;3.05;1.90;;;18.50;31.20;;;;;;5063791;28;46788;-18
2022/01/19 02:21:58;;;;;;;2.22;2.03;;;18.50;31.10;;;;;;5066278;28;46811;-18
2022/01/19 02:24:29;;;;;;;2.08;1.85;;;18.50;31.10;;;;;;5065987;28;47329;-19
2022/01/19 02:27:04;;;;;;;2.67;2.33;;;18.50;31.10;;;;;;5066259;28;46908;-19
2022/01/19 02:40:29;;;;;;;2.08;1.88;;;18.40;31.10;;;;;;5063177;28;46812;-20
2022/01/19 02:43:06;;;;;;;2.25;2.05;;;18.40;31.10;;;;;;5065711;28;46870;-19
2022/01/19 02:51:02;;;;;;;2.05;1.80;;;18.40;31.00;;;;;;5062928;28;46802;-18
2022/01/19 02:53:32;;;;;;;2.65;1.77;;;18.40;31.00;;;;;;5065611;28;46740;-19
2022/01/19 02:55:58;;;;;;;1.88;1.63;;;18.40;31.00;;;;;;5065772;28;46834;-19
2022/01/19 02:58:25;;;;;;;2.55;1.98;;;18.40;31.10;;;;;;5065426;28;46912;-19
2022/01/19 03:09:11;;;;;;;2.20;1.70;;;18.40;31.00;;;;;;5007264;28;47510;-19
2022/01/19 03:11:37;;;;;;;1.92;1.73;;;18.40;31.00;;;;;;5065442;28;48107;-18
2022/01/19 03:14:07;;;;;;;2.00;1.70;;;18.40;31.10;;;;;;5065277;28;46941;-19
2022/01/19 03:16:34;;;;;;;1.88;1.70;;;18.40;31.10;;;;;;5065357;28;46935;-18
2022/01/19 03:19:01;;;;;;;1.98;1.80;;;18.40;31.00;;;;;;5065261;28;46907;-19
2022/01/19 03:21:28;;;;;;;2.95;1.83;;;18.40;31.00;;;;;;5065372;28;46926;-19
2022/01/19 03:23:54;;;;;;;2.15;1.95;;;18.40;31.00;;;;;;5064752;28;47102;-19
2022/01/19 03:26:22;;;;;;;2.40;1.80;;;18.40;31.00;;;;;;5065477;28;46810;-18
2022/01/19 03:28:49;;;;;;;2.15;1.92;;;18.40;31.00;;;;;;5065427;28;47291;-18
2022/01/19 03:31:16;;;;;;;2.67;2.20;;;18.40;31.10;;;;;;5065274;28;48194;-18
2022/01/19 03:33:44;;;;;;;1.92;1.50;;;18.40;31.00;;;;;;5064829;28;47033;-19
2022/01/19 03:36:10;;;;;;;2.28;1.80;;;18.40;31.00;;;;;;5065000;28;46929;-19
2022/01/19 03:38:37;;;;;;;1.65;1.55;;;18.40;30.90;;;;;;5064868;28;46840;-19
2022/01/19 03:41:04;;;;;;;1.50;1.40;;;18.40;30.90;;;;;;5065180;28;48855;-19
2022/01/19 03:43:32;;;;;;;1.80;1.40;;;18.40;31.00;;;;;;5064837;28;46897;-18
2022/01/19 03:46:00;;;;;;;1.95;1.70;;;18.40;31.00;;;;;;5065100;28;47034;-18
2022/01/19 03:48:42;;;;;;;1.75;1.50;;;18.40;30.90;;;;;;5065383;28;47087;-19
2022/01/19 03:51:09;;;;;;;2.25;2.03;;;18.40;31.00;;;;;;5065096;28;48098;-18
2022/01/19 03:53:35;;;;;;;1.95;1.77;;;18.40;30.90;;;;;;5064742;28;46870;-19
2022/01/19 03:56:02;;;;;;;2.00;1.60;;;18.40;30.90;;;;;;5065202;28;46827;-18
2022/01/19 03:58:29;;;;;;;2.10;1.60;;;18.40;30.90;;;;;;5064923;28;46807;-19
2022/01/19 04:00:58;;;;;;;2.00;1.58;;;18.40;31.00;;;;;;5064529;28;47846;-18
2022/01/19 04:03:34;;;;;;;1.83;1.73;;;18.40;31.00;;;;;;5064692;28;46942;-19
2022/01/19 04:06:06;;;;;;;2.13;1.65;;;18.40;31.00;;;;;;5065153;28;46863;-18
2022/01/19 04:08:33;;;;;;;2.83;1.73;;;18.40;30.90;;;;;;5064589;28;46999;-19
2022/01/19 04:10:59;;;;;;;1.75;1.60;;;18.40;30.80;;;;;;5065542;28;47847;-18
2022/01/19 04:13:33;;;;;;;1.65;1.55;;;18.40;30.80;;;;;;5068009;28;46846;-20
2022/01/19 04:16:01;;;;;;;1.75;1.52;;;18.40;30.90;;;;;;5068442;28;46964;-19
2022/01/19 04:18:27;;;;;;;2.03;1.85;;;18.30;30.90;;;;;;5068059;28;47222;-19
2022/01/19 04:20:54;;;;;;;1.70;1.60;;;18.40;30.90;;;;;;5068145;28;46873;-13
2022/01/19 04:23:22;;;;;;;2.10;1.70;;;18.40;30.80;;;;;;5067992;28;46941;-14
2022/01/19 04:25:48;;;;;;;1.67;1.58;;;18.40;30.80;;;;;;5067945;28;47007;-13
2022/01/19 04:28:15;;;;;;;2.45;2.10;;;18.40;30.80;;;;;;5068205;28;46969;-14
2022/01/19 04:30:42;;;;;;;2.22;1.98;;;18.30;30.80;;;;;;5068108;28;49060;-14
2022/01/19 04:33:13;;;;;;;2.30;2.00;;;18.30;30.80;;;;;;5067557;28;46941;-13
2022/01/19 04:35:49;;;;;;;1.75;1.65;;;18.30;30.80;;;;;;5068028;28;46815;-14
2022/01/19 05:01:36;;;;;;;1.92;1.80;;;18.30;30.70;;;;;;5067488;28;46894;-13
2022/01/19 05:03:26;;;;;;;2.38;2.05;;;18.30;30.80;;;;;;5065274;28;47476;-14
2022/01/19 05:06:00;;;;;;;1.80;1.70;;;18.30;30.80;;;;;;5067266;28;46864;-14
2022/01/19 05:08:49;;;;;;;2.30;2.10;;;18.30;30.80;;;;;;5067432;28;46862;-14
2022/01/19 05:14:00;;;;;;;2.55;2.00;;;18.30;30.70;;;;;;5065911;28;46860;-13
2022/01/19 05:16:27;;;;;;;2.25;2.00;;;18.20;30.60;;;;;;5067279;28;46840;-13
2022/01/19 05:18:54;;;;;;;2.47;1.95;;;18.20;30.70;;;;;;5066690;28;46816;-14
2022/01/19 05:21:22;;;;;;;2.42;2.15;;;18.30;30.70;;;;;;5067679;28;46889;-14
2022/01/19 05:23:49;;;;;;;2.00;1.90;;;18.30;30.60;;;;;;5066852;28;48125;-13
2022/01/19 05:26:15;;;;;;;2.45;2.05;;;18.30;30.50;;;;;;5066853;28;46964;-14
2022/01/19 05:28:42;;;;;;;2.00;1.90;;;18.30;30.40;;;;;;5066806;28;46862;-14
2022/01/19 05:31:09;;;;;;;2.03;1.83;;;18.30;30.50;;;;;;5067413;28;47352;-14
2022/01/19 05:33:36;;;;;;;2.85;1.83;;;18.30;30.60;;;;;;5066334;28;47954;-14
2022/01/19 05:36:02;;;;;;;2.10;1.90;;;18.30;30.60;;;;;;5066779;28;46799;-14
2022/01/19 05:38:30;;;;;;;2.13;1.85;;;18.30;30.60;;;;;;5066433;28;47026;-14
2022/01/19 05:40:57;;;;;;;2.20;2.00;;;18.30;30.50;;;;;;5066819;28;46942;-13
2022/01/19 05:43:24;;;;;;;2.10;1.90;;;18.20;30.50;;;;;;5066500;28;46810;-14
2022/01/19 05:45:51;;;;;;;2.20;2.00;;;18.20;30.50;;;;;;5066508;28;46871;-14
2022/01/19 05:48:17;;;;;;;2.35;2.00;;;18.20;30.50;;;;;;5066784;28;46741;-18
2022/01/19 05:50:44;;;;;;;2.28;1.85;;;18.20;30.50;;;;;;5067111;28;47131;-19
2022/01/19 05:53:11;;;;;;;1.80;1.70;;;18.20;30.50;;;;;;5066473;28;48052;-19
2022/01/19 05:55:39;;;;;;;2.28;2.05;;;18.20;30.50;;;;;;5066316;28;47456;-20
2022/01/19 05:58:05;;;;;;;2.15;1.95;;;18.20;30.50;;;;;;5066233;28;47003;-19
2022/01/19 06:00:32;;;;;;;2.72;1.85;;;18.20;30.50;;;;;;5066414;28;46843;-19
2022/01/19 06:02:59;;;;;;;3.25;2.03;;;18.20;30.50;;;;;;5066289;28;48763;-18
2022/01/19 06:05:25;;;;;;;3.15;2.13;;;18.20;30.40;;;;;;5066516;28;47324;-18
2022/01/19 06:08:09;;;;;;;2.85;2.15;;;18.20;30.40;;;;;;5066551;28;46936;-19
2022/01/19 06:10:45;;;;;;;2.33;2.13;;;18.20;30.40;;;;;;5066663;28;47073;-20
2022/01/19 06:13:14;;;;;;;2.35;2.15;;;18.20;30.40;;;;;;5066046;28;47924;-19
2022/01/19 06:15:41;;;;;;;2.42;1.90;;;18.20;30.40;;;;;;5066426;28;47396;-19
2022/01/19 06:18:07;;;;;;;2.08;1.88;;;18.20;30.40;;;;;;5066439;28;46845;-19
2022/01/19 06:20:34;;;;;;;2.50;2.00;;;18.20;30.40;;;;;;5066382;28;46847;-19
2022/01/19 06:23:01;;;;;;;2.08;1.98;;;18.20;30.40;;;;;;5065675;28;47839;-19
2022/01/19 06:25:27;;;;;;;2.33;2.13;;;18.20;30.40;;;;;;5066217;28;47164;-19
2022/01/19 06:27:54;;;;;;;1.77;1.50;;;18.20;30.40;;;;;;5065738;28;46983;-19
2022/01/19 06:30:22;;;;;;;2.67;1.83;;;18.10;30.40;;;;;;5066094;28;47146;-19
2022/01/19 06:32:49;;;;;;;1.90;1.80;;;18.20;30.40;;;;;;5065488;28;48104;-19
2022/01/19 06:35:16;;;;;;;3.22;1.75;;;18.20;30.40;;;;;;5065361;28;46988;-19
2022/01/19 06:37:42;;;;;;;2.63;1.67;;;18.20;30.40;;;;;;5065646;28;46893;-19
2022/01/19 06:40:10;;;;;;;1.65;1.55;;;18.20;30.40;;;;;;5065992;28;47218;-20
2022/01/19 06:42:37;;;;;;;1.83;1.73;;;18.20;30.40;;;;;;5065738;28;48059;-19
2022/01/19 06:45:05;;;;;;;2.97;2.10;;;18.20;30.40;;;;;;5065841;28;46967;-19
2022/01/19 06:47:33;;;;;;;1.80;1.70;;;18.20;30.40;;;;;;5065024;28;47024;-18
2022/01/19 06:50:00;;;;;;;2.10;1.90;;;18.20;30.30;;;;;;5065354;28;46854;-19
2022/01/19 06:52:26;;;;;;;2.50;1.90;;;18.20;30.20;;;;;;5065247;28;47972;-18
2022/01/19 06:54:53;;;;;;;1.85;1.70;;;18.20;30.30;;;;;;5065393;28;47109;-19
2022/01/19 06:57:20;;;;;;;1.77;1.67;;;18.20;30.30;;;;;;5065494;28;46826;-18
2022/01/19 06:59:48;;;;;;;3.10;1.70;;;18.20;30.30;;;;;;5065556;28;47389;-18
2022/01/19 07:02:15;;;;;;;1.95;1.80;;;18.20;30.30;;;;;;5065239;28;48357;-18
2022/01/19 07:04:48;;;;;;;1.65;1.50;;;18.20;30.20;;;;;;5065434;28;46798;-19
2022/01/19 07:07:16;;;;;;;1.77;1.67;;;18.20;30.20;;;;;;5065258;28;46850;-20
2022/01/19 07:09:43;;;;;;;1.88;1.77;;;18.20;30.10;;;;;;5065290;28;46785;-19
2022/01/19 07:12:10;;;;;;;2.30;2.08;;;18.20;30.30;;;;;;5065271;28;46831;-20
2022/01/19 07:14:37;;;;;;;1.90;1.70;;;18.10;30.20;;;;;;5065488;28;47073;-20
2022/01/19 07:17:05;;;;;;;1.80;1.67;;;18.10;30.20;;;;;;5081054;28;46910;-20
2022/01/19 07:19:32;;;;;;;2.03;1.90;;;18.20;30.20;;;;;;5085792;28;46834;-20
2022/01/19 07:22:00;;;;;;;1.90;1.80;;;18.20;30.20;;;;;;5083250;28;48023;-20
2022/01/19 07:24:26;;;;;;;2.13;1.92;;;18.10;30.20;;;;;;5075171;28;47058;-14
2022/01/19 07:26:53;;;;;;;2.70;2.05;;;18.10;30.20;;;;;;5073990;28;47073;-14
2022/01/19 07:29:20;;;;;;;1.98;1.80;;;18.10;30.20;;;;;;5073963;28;46747;-15
2022/01/19 07:31:47;;;;;;;1.85;1.70;;;18.20;30.20;;;;;;5076493;28;46929;-14
2022/01/19 07:34:13;;;;;;;2.13;1.92;;;18.20;30.20;;;;;;5083822;28;47127;-14
2022/01/19 07:36:40;;;;;;;2.28;2.08;;;18.20;30.10;;;;;;5083694;28;46928;-14
2022/01/19 07:39:10;;;;;;;2.97;1.95;;;18.10;30.10;;;;;;5083942;28;47046;-15
2022/01/19 07:41:38;;;;;;;2.17;1.98;;;18.10;30.00;;;;;;5083681;28;48729;-14
2022/01/19 07:44:05;;;;;;;2.58;2.38;;;18.10;30.10;;;;;;5083246;28;46952;-14
2022/01/19 07:46:32;;;;;;;2.33;2.10;;;18.10;30.10;;;;;;5085937;27;46956;-15
2022/01/19 07:49:00;;;;;;;2.40;2.03;;;18.20;30.10;;;;;;5087744;28;47261;-15
2022/01/19 07:51:26;;;;;;;2.78;2.58;;;18.10;30.10;;;;;;5087982;28;47924;-14
2022/01/19 07:53:53;;;;;;;2.72;2.42;;;18.10;30.10;;;;;;5087830;28;47166;-14
2022/01/19 07:56:21;;;;;;;3.10;2.20;;;18.10;30.10;;;;;;5088763;28;47022;-14
2022/01/19 07:58:48;;;;;;;2.63;2.10;;;18.20;30.10;;;;;;5088903;28;46958;-14
2022/01/19 08:01:16;;;;;;;2.60;2.40;;;18.20;30.10;;;;;;5089424;28;46935;-15
2022/01/19 08:03:43;;;;;;;2.50;2.30;;;18.20;30.10;;;;;;5088663;28;47063;-14
2022/01/19 08:06:09;;;;;;;2.67;2.05;;;18.20;30.10;;;;;;5088942;28;46960;-14
2022/01/19 08:08:36;;;;;;;2.60;2.20;;;18.20;30.10;;;;;;5075700;28;46863;-14
2022/01/19 08:11:03;;;;;;;2.67;2.17;;;18.20;30.10;;;;;;5068191;28;48445;-14
2022/01/19 08:13:31;;;;;;;2.80;2.50;;;18.20;30.10;;;;;;5067981;28;47608;-15
2022/01/19 08:15:58;;;;;;;2.97;2.25;;;18.20;30.10;;;;;;5068342;28;46881;-14
2022/01/19 08:18:25;;;;;;;2.45;2.10;;;18.20;30.00;;;;;;5068276;28;47325;-14
2022/01/19 08:20:51;;;;;;;2.58;2.22;;;18.20;30.10;;;;;;5067636;28;47934;-14
2022/01/19 08:23:18;;;;;;;2.90;2.50;;;18.10;30.00;;;;;;5067621;28;46886;-14
2022/01/19 08:25:45;;;;;;;3.03;2.25;;;18.20;30.10;;;;;;5068298;28;46842;-15
2022/01/19 08:28:12;;;;;;;2.85;2.28;;;18.20;30.10;;;;;;5067741;28;47290;-15
2022/01/19 08:30:40;;;;;;;3.45;2.35;;;18.20;29.90;;;;;;5068455;28;47012;-15
2022/01/19 08:33:09;;;;;;;2.78;2.55;;;18.20;30.10;;;;;;5084592;28;46952;-14
2022/01/19 08:35:36;;;;;;;3.42;2.60;;;18.20;30.10;;;;;;5086726;27;46904;-14
2022/01/19 08:38:03;;;;;;;2.05;1.95;;;18.20;30.10;;;;;;5085516;28;46870;-14
2022/01/19 08:40:30;;;;;;;2.50;2.30;;;18.20;30.10;;;;;;5087567;28;47067;-14
2022/01/19 08:42:57;;;;;;;2.65;2.42;;;18.20;30.00;;;;;;5087797;28;46878;-14
2022/01/19 08:45:24;;;;;;;2.30;2.10;;;18.30;30.00;;;;;;5088383;28;46895;-13
2022/01/19 08:47:52;;;;;;;4.70;2.58;;;18.30;30.00;;;;;;5087668;28;46840;-14
2022/01/19 08:50:19;;;;;;;3.08;2.10;;;18.20;30.00;;;;;;5087729;28;47987;-13
2022/01/19 08:52:46;;;;;;;2.63;2.20;;;18.30;30.10;;;;;;5087539;28;46981;-14
2022/01/19 08:55:12;;;;;;;2.70;2.50;;;18.20;30.10;;;;;;5087820;28;46851;-14
2022/01/19 08:57:39;;;;;;;2.55;2.33;;;18.30;30.10;;;;;;5085645;27;46874;-14
2022/01/19 09:00:07;;;;;;;2.85;2.33;;;18.30;30.00;;;;;;5068044;28;47076;-15
2022/01/19 09:02:34;;;;;;;2.72;2.40;;;18.30;30.00;;;;;;5067267;28;47238;-15
2022/01/19 09:05:02;;;;;;;2.88;2.58;;;18.30;30.00;;;;;;5067395;28;47001;-14
2022/01/19 09:07:29;;;;;;;2.50;2.30;;;18.30;30.10;;;;;;5067614;28;47132;-14
2022/01/19 09:09:56;;;;;;;2.83;2.20;;;18.30;30.20;;;;;;5067167;28;47070;-15
2022/01/19 09:12:22;;;;;;;2.63;2.17;;;18.30;30.10;;;;;;5067104;28;46879;-14
2022/01/19 09:14:49;;;;;;;2.70;2.50;;;18.40;30.10;;;;;;5067269;28;46789;-14
2022/01/19 09:17:16;;;;;;;2.50;2.30;;;18.40;30.10;;;;;;5066460;28;46941;-14
2022/01/19 09:19:42;;;;;;;2.45;2.22;;;18.40;30.10;;;;;;5066379;28;48100;-14
2022/01/19 09:22:11;;;;;;;2.40;2.20;;;18.40;30.10;;;;;;5066897;28;47444;-14
2022/01/19 09:24:38;;;;;;;3.17;2.40;;;18.40;30.20;;;;;;5084433;28;47036;-14
2022/01/19 09:27:05;;;;;;;2.65;2.45;;;18.40;30.10;;;;;;5087395;27;47245;-13
2022/01/19 09:29:32;;;;;;;2.90;2.47;;;18.50;30.20;;;;;;5086982;28;49050;-14
2022/01/19 09:32:01;;;;;;;3.30;2.45;;;18.50;30.10;;;;;;5087284;28;46852;-14
2022/01/19 09:34:27;;;;;;;2.63;2.40;;;18.50;30.20;;;;;;5086424;27;46936;-14
2022/01/19 09:36:54;;;;;;;2.35;2.13;;;18.50;30.20;;;;;;5087159;28;47103;-13
2022/01/19 09:39:23;;;;;;;2.67;2.22;;;18.50;30.20;;;;;;5087284;28;46972;-14
2022/01/19 09:41:50;;;;;;;2.42;2.22;;;18.50;30.30;;;;;;5087015;28;47423;-14
2022/01/19 09:44:17;;;;;;;2.70;2.28;;;18.50;30.30;;;;;;5074123;27;46821;-14
2022/01/19 09:46:44;;;;;;;3.15;2.70;;;18.50;30.30;;;;;;5067047;28;46920;-14
2022/01/19 09:49:12;;;;;;;4.97;2.83;;;18.50;30.30;;;;;;5066579;28;49107;-14
2022/01/19 09:51:40;;;;;;;2.50;2.30;;;18.50;30.40;;;;;;5066611;28;46881;-14
2022/01/19 09:54:06;;;;;;;3.70;2.60;;;18.40;30.40;;;;;;5066378;28;46992;-14
2022/01/19 09:56:34;;;;;;;4.07;2.63;;;18.50;30.50;;;;;;5067123;28;47347;-13
2022/01/19 09:59:01;;;;;;;3.33;2.40;;;18.50;30.30;;;;;;5066228;28;48782;-14
2022/01/19 10:01:28;;;;;;;3.65;2.60;;;18.60;30.40;;;;;;5066248;28;47214;-15
2022/01/19 10:03:56;;;;;;;2.80;2.50;;;18.60;30.30;;;;;;5066512;28;47033;-14
2022/01/19 10:06:23;;;;;;;2.67;2.47;;;18.60;30.30;;;;;;5066455;28;46894;-14
2022/01/19 10:08:51;;;;;;;3.85;2.58;;;18.60;30.30;;;;;;5065166;28;46843;-14
2022/01/19 10:11:21;;;;;;;3.08;2.75;;;18.60;30.20;;;;;;5065434;28;46929;-14
2022/01/19 10:19:21;;;;;;;3.55;2.63;;;18.70;30.40;;;;;;5073164;28;46837;-14
2022/01/19 10:22:02;;;;;;;3.13;2.83;;;18.80;30.40;;;;;;5066109;28;46957;-14
2022/01/19 10:24:41;;;;;;;2.83;2.58;;;18.80;30.40;;;;;;5066141;28;46935;-14
2022/01/19 10:27:28;;;;;;;4.40;2.60;;;18.80;30.40;;;;;;5066157;28;46855;-15
2022/01/19 10:29:58;;;;;;;3.00;2.70;;;18.80;30.50;;;;;;5066053;28;48830;-15
2022/01/19 10:32:26;;;;;;;3.08;2.78;;;18.80;30.40;;;;;;5065845;28;46791;-15
2022/01/19 10:34:53;;;;;;;3.08;2.63;;;18.90;30.40;;;;;;5065560;28;47069;-15
2022/01/19 10:37:24;;;;;;;3.10;2.80;;;18.90;30.30;;;;;;5066185;28;47141;-14
2022/01/19 10:39:51;;;;;;;2.72;2.33;;;18.90;30.30;;;;;;5065736;28;46912;-15
2022/01/19 10:42:19;;;;;;;2.95;2.72;;;19.00;30.30;;;;;;5066005;28;46909;-14
2022/01/19 10:44:47;;;;;;;2.95;2.70;;;18.90;30.10;;;;;;5064636;28;46921;-15
2022/01/19 10:47:17;;;;;;;3.38;2.95;;;18.90;30.40;;;;;;5073661;28;47267;-15
2022/01/19 10:49:52;;;;;;;2.63;2.30;;;19.00;30.50;;;;;;5086070;28;47842;-14
2022/01/19 10:52:31;;;;;;;3.55;2.60;;;19.00;30.40;;;;;;5086163;28;46879;-15
2022/01/19 10:54:58;;;;;;;3.42;2.70;;;19.10;30.40;;;;;;5085915;28;46858;-14
2022/01/19 10:57:25;;;;;;;3.20;2.75;;;19.10;30.30;;;;;;5085983;28;47185;-14
2022/01/19 10:59:53;;;;;;;2.83;2.63;;;19.10;30.20;;;;;;5085912;28;47691;-13
2022/01/19 11:02:22;;;;;;;3.00;2.70;;;19.20;30.30;;;;;;5085758;28;46869;-14
2022/01/19 11:04:48;;;;;;;3.25;2.95;;;19.20;30.30;;;;;;5085673;28;46787;-14
2022/01/19 11:07:19;;;;;;;3.53;2.88;;;19.20;30.30;;;;;;5085755;28;47128;-14
2022/01/19 11:09:46;;;;;;;3.15;2.80;;;19.20;30.30;;;;;;5085378;28;48063;-14
2022/01/19 11:12:15;;;;;;;2.75;2.55;;;19.30;30.30;;;;;;5085738;28;46799;-14
2022/01/19 11:14:42;;;;;;;3.83;2.97;;;19.30;30.20;;;;;;5085132;28;47013;-15
2022/01/19 11:17:09;;;;;;;3.00;2.60;;;19.40;30.20;;;;;;5081739;28;47204;-14
2022/01/19 11:19:38;;;;;;;3.28;2.70;;;19.40;30.10;;;;;;5074777;28;47973;-14
2022/01/19 11:22:20;;;;;;;3.17;2.70;;;19.40;30.00;;;;;;5064931;28;47673;-14
2022/01/19 11:24:55;;;;;;;2.83;2.63;;;19.50;30.10;;;;;;5065324;28;46743;-14
2022/01/19 11:27:23;;;;;;;3.55;2.90;;;19.50;30.10;;;;;;5064848;28;47159;-14
2022/01/19 11:30:08;;;;;;;3.22;2.85;;;19.60;30.20;;;;;;5065107;28;48818;-14
2022/01/19 11:32:34;;;;;;;3.33;2.72;;;19.60;30.00;;;;;;5065255;28;47311;-14
2022/01/19 11:35:03;;;;;;;3.05;2.75;;;19.60;30.00;;;;;;5065015;28;46906;-15
2022/01/19 11:37:35;;;;;;;2.70;2.50;;;19.70;30.00;;;;;;5065159;28;47081;-14
2022/01/19 11:40:10;;;;;;;3.10;2.80;;;19.70;30.00;;;;;;5064726;28;46804;-14
2022/01/19 11:42:37;;;;;;;3.40;2.70;;;19.70;30.00;;;;;;5065168;28;46998;-14
2022/01/19 11:45:05;;;;;;;2.90;2.50;;;19.70;30.00;;;;;;5065126;28;46836;-14
2022/01/19 11:47:32;;;;;;;2.97;2.70;;;19.80;30.00;;;;;;5065481;28;47000;-13
2022/01/19 11:50:00;;;;;;;3.33;2.65;;;19.80;30.00;;;;;;5064571;28;47040;-14
2022/01/19 11:52:52;;;;;;;2.60;2.40;;;19.90;29.90;;;;;;5084884;28;46844;-14
2022/01/19 11:55:20;;;;;;;3.03;2.70;;;19.90;30.00;;;;;;5085264;28;46815;-14
2022/01/19 11:57:47;;;;;;;2.80;2.60;;;20.00;29.90;;;;;;5085348;28;46841;-16
2022/01/19 12:00:16;;;;;;;3.10;2.80;;;20.00;29.80;;;;;;5084888;28;47178;-18
2022/01/19 12:02:45;;;;;;;2.72;2.53;;;20.00;29.90;;;;;;5085006;28;47054;-15
2022/01/19 12:05:30;;;;;;;3.72;2.70;;;20.10;29.90;;;;;;5085329;28;46815;-14
2022/01/19 12:07:59;;;;;;;2.97;2.53;;;20.10;29.80;;;;;;5085213;27;46958;-14
2022/01/19 12:10:46;;;;;;;3.20;2.90;;;20.10;29.80;;;;;;5084602;28;47937;-15
2022/01/19 12:13:29;;;;;;;2.60;2.40;;;20.10;29.80;;;;;;5082832;28;46869;-15
2022/01/19 12:16:00;;;;;;;3.28;2.70;;;20.20;29.80;;;;;;5084288;28;46939;-14
2022/01/19 12:18:40;;;;;;;2.83;2.63;;;20.20;29.90;;;;;;5084901;28;47198;-16
2022/01/19 12:21:08;;;;;;;2.80;2.60;;;20.20;29.80;;;;;;5084477;28;48241;-14
2022/01/19 12:23:37;;;;;;;2.50;2.30;;;20.30;29.80;;;;;;5084706;28;47186;-14
2022/01/19 12:26:06;;;;;;;2.58;2.38;;;20.30;29.80;;;;;;5084959;27;46834;-15
2022/01/19 12:28:40;;;;;;;2.65;2.45;;;20.30;29.80;;;;;;5084684;27;46894;-14
2022/01/19 12:31:32;;;;;;;2.85;2.65;;;20.30;29.80;;;;;;5084806;27;47077;-15
2022/01/19 12:34:20;;;;;;;2.85;2.60;;;20.30;29.80;;;;;;5088081;28;47050;-15
2022/01/19 12:36:50;;;;;;;2.72;2.53;;;20.30;29.80;;;;;;5083527;27;46846;-15
2022/01/19 12:39:43;;;;;;;3.00;2.80;;;20.30;29.80;;;;;;5088353;28;46924;-15
2022/01/19 12:42:18;;;;;;;2.60;2.40;;;20.30;29.80;;;;;;5087443;27;48163;-14
2022/01/19 12:44:49;;;;;;;3.15;2.70;;;20.40;29.80;;;;;;5088186;28;46967;-14
2022/01/19 12:47:46;;;;;;;2.95;2.65;;;20.40;29.80;;;;;;5088223;28;46944;-14
2022/01/19 12:50:35;;;;;;;3.88;2.83;;;20.40;29.80;;;;;;5088551;27;46906;-14
2022/01/19 12:53:05;;;;;;;2.70;2.50;;;20.40;29.80;;;;;;5088163;28;47929;-14
2022/01/19 12:55:36;;;;;;;4.30;2.75;;;20.40;29.80;;;;;;5088197;27;46898;-15
2022/01/19 12:58:09;;;;;;;3.03;2.67;;;20.40;29.90;;;;;;5087659;28;47045;-14
2022/01/19 13:00:36;;;;;;;4.57;3.20;;;20.40;29.90;;;;;;5088211;28;46943;-14
2022/01/19 13:03:13;;;;;;;3.28;2.97;;;20.40;29.80;;;;;;5087656;28;48764;-14
2022/01/19 13:05:45;;;;;;;3.20;2.85;;;20.40;29.90;;;;;;5087922;28;46917;-14
2022/01/19 13:08:13;;;;;;;3.88;3.15;;;20.30;29.80;;;;;;5087984;28;46970;-14
2022/01/19 13:10:49;;;;;;;3.47;3.13;;;20.30;30.00;;;;;;5088111;27;47314;-14
2022/01/19 13:13:26;;;;;;;3.38;2.90;;;20.20;30.00;;;;;;5087913;28;47840;-14
2022/01/19 13:15:54;;;;;;;3.33;2.67;;;20.10;30.10;;;;;;5087941;28;47336;-14
2022/01/19 13:18:30;;;;;;;3.25;2.95;;;20.00;30.30;;;;;;5087124;28;46832;-15
2022/01/19 13:21:02;;;;;;;4.80;2.85;;;19.80;30.50;;;;;;5087474;28;46926;-14
2022/01/19 13:23:29;;;;;;;2.45;2.25;;;19.70;30.70;;;;;;5087218;28;48161;-14
2022/01/19 13:25:58;;;;;;;3.10;2.80;;;19.70;30.80;;;;;;5087258;28;48230;-17
2022/01/19 13:28:26;;;;;;;2.97;2.35;;;19.60;30.90;;;;;;5087561;28;47049;-15
2022/01/19 13:30:56;;;;;;;3.30;2.63;;;19.60;31.00;;;;;;5087300;28;46865;-15
2022/01/19 13:33:23;;;;;;;2.88;2.63;;;19.50;31.10;;;;;;5087014;28;48414;-14
2022/01/19 13:35:58;;;;;;;4.85;2.58;;;19.50;31.20;;;;;;5087252;28;46992;-14
2022/01/19 13:38:26;;;;;;;2.90;2.60;;;19.50;31.10;;;;;;5087247;28;46836;-14
2022/01/19 13:40:54;;;;;;;2.65;2.40;;;19.40;31.20;;;;;;5087163;28;46980;-14
2022/01/19 13:43:22;;;;;;;2.70;2.45;;;19.40;31.40;;;;;;5073326;27;48803;-14
2022/01/19 13:45:52;;;;;;;2.88;2.42;;;19.30;31.30;;;;;;5066594;28;47405;-15
2022/01/19 13:48:28;;;;;;;2.97;2.67;;;19.30;31.40;;;;;;5084053;28;46831;-15
2022/01/19 13:50:56;;;;;;;3.80;2.72;;;19.30;31.50;;;;;;5086929;28;46933;-14
2022/01/19 13:53:27;;;;;;;2.95;2.60;;;19.30;32.10;;;;;;5086806;28;49046;-14
2022/01/19 13:55:54;;;;;;;2.95;2.60;;;19.20;31.60;;;;;;5086793;28;46912;-14
2022/01/19 13:58:22;;;;;;;2.83;2.40;;;19.30;31.70;;;;;;5086803;28;46821;-14
2022/01/19 14:00:53;;;;;;;2.67;2.47;;;19.20;31.60;;;;;;5087219;28;46843;-14
2022/01/19 14:03:20;;;;;;;2.65;2.40;;;19.20;31.60;;;;;;5086346;28;47955;-14
2022/01/19 14:05:48;;;;;;;3.28;2.75;;;19.20;31.60;;;;;;5086800;28;46741;-14
2022/01/19 14:08:14;;;;;;;3.17;2.85;;;19.20;31.70;;;;;;5086304;28;46814;-14